Time;durP1;ratioP1;P1;durP2;ratioP2;P2;SDS_P1;SDS_P2;PMS_P1;PMS_P2;Temp;Humidity;BMP_temperature;BMP_pressure;BME280_temperature;BME280_humidity;BME280_pressure;Samples;Min_cycle;Max_cycle;Signal;HPM_P1;HPM_P2
2022/04/30 00:02:11;;;;;;;84.30;53.20;;;;;;;5.24;70.91;101190.82;1858652;77;25875;-67
2022/04/30 00:04:42;;;;;;;80.17;53.65;;;;;;;5.21;71.35;101184.61;1858796;76;25763;-67
2022/04/30 00:07:19;;;;;;;79.05;53.83;;;;;;;5.17;71.20;101187.53;1858759;76;25659;-67
2022/04/30 00:09:48;;;;;;;83.67;52.70;;;;;;;5.11;71.31;101187.17;1858792;76;27457;-66
2022/04/30 00:12:16;;;;;;;84.27;55.00;;;;;;;5.05;71.10;101181.75;1858936;76;25397;-67
2022/04/30 00:14:44;;;;;;;84.67;54.42;;;;;;;5.03;71.60;101185.22;1858775;76;25600;-67
2022/04/30 00:17:11;;;;;;;84.45;54.03;;;;;;;4.98;71.54;101180.34;1858624;77;25398;-67
2022/04/30 00:19:38;;;;;;;84.07;52.85;;;;;;;4.96;71.50;101176.56;1858778;77;25235;-67
2022/04/30 00:22:05;;;;;;;86.15;52.95;;;;;;;4.93;71.71;101181.08;1858701;77;27613;-66
2022/04/30 00:24:33;;;;;;;90.47;54.60;;;;;;;4.90;71.59;101185.59;1860246;76;25428;-67
2022/04/30 00:27:01;;;;;;;80.15;52.38;;;;;;;4.86;71.88;101179.92;1865116;76;25910;-67
2022/04/30 00:29:29;;;;;;;84.00;52.62;;;;;;;4.82;71.81;101186.05;1865060;76;25379;-67
2022/04/30 00:31:57;;;;;;;82.53;50.75;;;;;;;4.77;71.72;101176.59;1864993;76;25370;-67
2022/04/30 00:34:25;;;;;;;86.78;52.17;;;;;;;4.74;71.68;101178.43;1864948;76;27635;-67
2022/04/30 00:36:51;;;;;;;78.12;50.03;;;;;;;4.69;72.22;101175.14;1864926;76;25719;-67
2022/04/30 00:39:18;;;;;;;80.92;52.05;;;;;;;4.66;72.27;101173.75;1864828;76;25374;-67
2022/04/30 00:41:47;;;;;;;75.90;49.40;;;;;;;4.61;72.26;101177.70;1865111;76;25654;-67
2022/04/30 00:44:20;;;;;;;82.85;53.25;;;;;;;4.55;72.24;101173.35;1865153;76;26030;-67
2022/04/30 00:46:47;;;;;;;81.60;52.50;;;;;;;4.49;72.26;101172.48;1864998;76;28351;-65
2022/04/30 00:49:14;;;;;;;86.37;53.25;;;;;;;4.46;72.28;101174.81;1848124;76;25446;-65
2022/04/30 00:51:46;;;;;;;88.78;53.50;;;;;;;4.41;72.40;101174.23;1865095;76;25396;-65
2022/04/30 00:54:14;;;;;;;80.42;52.45;;;;;;;4.39;72.47;101172.84;1864848;76;25457;-67
2022/04/30 00:56:59;;;;;;;83.55;53.20;;;;;;;4.36;72.60;101171.48;1865135;76;25452;-66
2022/04/30 00:59:26;;;;;;;85.85;51.30;;;;;;;4.34;72.79;101180.80;1864952;76;27472;-65
2022/04/30 01:01:53;;;;;;;81.12;49.88;;;;;;;4.29;72.76;101175.66;1864768;76;25453;-65
2022/04/30 01:04:19;;;;;;;81.17;51.48;;;;;;;4.26;72.72;101178.03;1865078;76;25409;-66
2022/04/30 01:06:57;;;;;;;83.35;52.90;;;;;;;4.23;72.71;101165.92;1865184;76;25560;-66
2022/04/30 01:09:29;;;;;;;81.17;51.35;;;;;;;4.21;72.79;101168.04;1865298;76;25423;-66
2022/04/30 01:12:08;;;;;;;84.40;52.38;;;;;;;4.18;72.86;101172.54;1865360;76;27444;-66
2022/04/30 01:14:35;;;;;;;86.67;51.55;;;;;;;4.17;72.94;101174.12;1865209;76;25392;-66
2022/04/30 01:17:05;;;;;;;87.90;52.27;;;;;;;4.14;73.11;101174.09;1865302;76;25613;-66
2022/04/30 01:19:33;;;;;;;;;;;;;;;4.14;73.19;101171.42;1867992;76;25551;-66
2022/04/30 01:22:21;;;;;;;78.50;50.23;;;;;;;4.14;73.48;101178.11;1865469;76;25605;-66
2022/04/30 01:24:58;;;;;;;79.07;49.10;;;;;;;4.13;73.73;101176.48;1863646;76;27410;-67
2022/04/30 01:27:30;;;;;;;70.05;46.08;;;;;;;4.14;74.00;101181.30;1858956;77;25575;-66
2022/04/30 01:30:01;;;;;;;73.20;45.90;;;;;;;4.15;74.14;101182.93;1858955;77;25550;-66
2022/04/30 01:38:04;;;;;;;74.45;44.35;;;;;;;4.08;74.04;101181.22;1858971;77;27329;-65
2022/04/30 01:40:31;;;;;;;75.00;46.68;;;;;;;4.02;74.05;101175.52;1858797;76;25415;-67
2022/04/30 01:43:01;;;;;;;72.45;47.65;;;;;;;3.99;74.23;101177.87;1858961;76;25535;-66
2022/04/30 01:45:29;;;;;;;72.42;46.58;;;;;;;3.97;74.37;101181.30;1858999;77;25724;-66
2022/04/30 01:47:57;;;;;;;75.10;48.25;;;;;;;3.95;74.33;101184.74;1858950;76;25406;-66
2022/04/30 01:50:24;;;;;;;75.22;47.10;;;;;;;3.91;74.44;101179.87;1858903;76;28125;-66
2022/04/30 01:52:51;;;;;;;68.17;45.33;;;;;;;3.89;74.52;101173.95;1858876;76;25592;-66
2022/04/30 01:55:17;;;;;;;64.95;44.15;;;;;;;3.87;74.57;101176.60;1858943;77;25580;-66
2022/04/30 01:57:44;;;;;;;68.52;44.77;;;;;;;3.82;74.40;101173.30;1858860;77;25398;-67
2022/04/30 02:00:14;;;;;;;69.80;46.23;;;;;;;3.79;74.39;101183.69;1858928;76;25454;-67
2022/04/30 02:02:44;;;;;;;70.25;45.58;;;;;;;3.74;74.52;101178.52;1859052;76;27451;-67
2022/04/30 02:05:13;;;;;;;68.95;44.67;;;;;;;3.71;74.56;101179.52;1858272;76;25563;-66
2022/04/30 02:07:45;;;;;;;68.20;44.95;;;;;;;3.68;74.41;101180.84;1859047;77;26019;-66
2022/04/30 02:10:12;;;;;;;69.15;45.25;;;;;;;3.63;74.40;101182.62;1857071;76;25590;-66
2022/04/30 02:12:38;;;;;;;70.12;43.92;;;;;;;3.59;74.27;101177.45;1858922;76;25553;-66
2022/04/30 02:15:08;;;;;;;73.07;45.70;;;;;;;3.54;74.36;101178.98;1858880;76;28195;-66
2022/04/30 02:17:38;;;;;;;63.83;43.35;;;;;;;3.50;74.49;101175.16;1858865;76;25717;-66
2022/04/30 02:20:22;;;;;;;73.40;46.13;;;;;;;3.49;74.50;101180.73;1858941;77;25506;-66
2022/04/30 02:22:50;;;;;;;74.60;47.55;;;;;;;3.44;74.50;101181.48;1858853;76;25941;-66
2022/04/30 02:25:18;;;;;;;76.77;48.68;;;;;;;3.40;74.48;101173.63;1858918;76;25620;-66
2022/04/30 02:27:47;;;;;;;73.83;46.42;;;;;;;3.37;74.51;101174.09;1858886;76;27513;-67
2022/04/30 02:30:17;;;;;;;73.10;46.58;;;;;;;3.31;74.40;101171.87;1858739;77;25355;-66
2022/04/30 02:32:51;;;;;;;76.12;49.58;;;;;;;3.27;74.28;101169.39;1858968;76;25377;-66
2022/04/30 02:35:26;;;;;;;72.97;47.27;;;;;;;3.23;74.26;101166.89;1858809;76;25549;-66
2022/04/30 02:37:56;;;;;;;70.05;44.75;;;;;;;3.17;74.32;101161.18;1857912;76;25559;-66
2022/04/30 02:40:25;;;;;;;65.97;43.13;;;;;;;3.12;74.45;101155.73;1858918;76;27419;-66
2022/04/30 02:42:52;;;;;;;71.67;48.40;;;;;;;3.08;74.46;101163.92;1859023;76;25542;-66
2022/04/30 02:45:22;;;;;;;70.65;47.03;;;;;;;3.05;74.88;101157.71;1858904;77;25417;-65
2022/04/30 02:47:53;;;;;;;;;;;;;;;3.03;74.81;101161.15;1860748;76;26380;-66
2022/04/30 02:50:19;;;;;;;65.90;44.08;;;;;;;2.98;74.83;101158.67;1858829;76;25528;-66
2022/04/30 02:52:46;;;;;;;62.25;42.45;;;;;;;2.93;74.66;101157.77;1858848;76;27672;-66
2022/04/30 02:55:12;;;;;;;65.42;43.05;;;;;;;2.88;74.58;101157.13;1858754;77;25826;-66
2022/04/30 03:00:39;;;;;;;67.58;43.73;;;;;;;2.82;74.66;101153.26;1858851;77;25559;-65
2022/04/30 03:03:05;;;;;;;65.03;42.80;;;;;;;2.76;74.67;101153.16;1858842;76;25553;-66
2022/04/30 03:05:32;;;;;;;65.97;42.88;;;;;;;2.70;74.77;101143.39;1858841;76;27382;-66
2022/04/30 03:08:00;;;;;;;73.78;42.78;;;;;;;2.69;74.94;101150.30;1858832;76;25623;-66
2022/04/30 03:10:26;;;;;;;63.58;42.20;;;;;;;2.65;74.95;101145.95;1858940;77;25553;-66
2022/04/30 03:12:52;;;;;;;65.65;43.68;;;;;;;2.63;74.93;101147.26;1859022;76;35080;-66
2022/04/30 03:15:21;;;;;;;71.90;44.67;;;;;;;2.61;75.01;101148.29;1859100;76;32402;-66
2022/04/30 03:23:15;;;;;;;68.95;42.98;;;;;;;2.57;75.01;101150.32;1859056;77;25448;-66
2022/04/30 03:25:42;;;;;;;65.85;43.35;;;;;;;2.55;75.20;101147.88;1858920;77;26303;-66
2022/04/30 03:28:08;;;;;;;67.22;44.60;;;;;;;2.52;75.13;101149.70;1859088;76;32451;-66
2022/04/30 03:30:34;;;;;;;62.48;42.17;;;;;;;2.51;75.19;101143.27;1859092;76;27526;-66
2022/04/30 03:32:59;;;;;;;77.08;51.80;;;;;;;2.50;75.48;101149.11;1858994;76;32791;-67
2022/04/30 03:35:26;;;;;;;72.80;48.60;;;;;;;2.49;75.52;101146.16;1859025;76;25530;-67
2022/04/30 03:37:52;;;;;;;78.70;49.75;;;;;;;2.51;75.67;101144.59;1858953;76;27714;-67
2022/04/30 03:40:18;;;;;;;70.28;47.05;;;;;;;2.51;75.72;101146.73;1859064;77;32376;-67
2022/04/30 03:42:44;;;;;;;73.80;46.73;;;;;;;2.50;75.99;101145.10;1859077;76;27619;-67
2022/04/30 03:45:11;;;;;;;69.87;46.15;;;;;;;2.53;75.96;101149.98;1858990;76;25908;-67
2022/04/30 03:47:37;;;;;;;70.55;45.95;;;;;;;2.55;76.04;101150.55;1859095;76;25374;-67
2022/04/30 03:50:06;;;;;;;82.72;51.60;;;;;;;2.56;75.97;101146.84;1859043;76;26204;-65
2022/04/30 03:52:33;;;;;;;100.00;61.90;;;;;;;2.59;76.20;101155.73;1859154;76;25438;-66
2022/04/30 03:54:59;;;;;;;81.47;47.03;;;;;;;2.60;76.24;101153.86;1859004;77;29667;-66
2022/04/30 03:57:28;;;;;;;64.15;42.98;;;;;;;2.64;76.09;101144.86;1858929;77;25376;-66
2022/04/30 03:59:53;;;;;;;65.80;43.68;;;;;;;2.68;76.19;101151.38;1859039;76;25559;-66
2022/04/30 04:02:20;;;;;;;58.15;40.90;;;;;;;2.70;76.20;101144.73;1859056;76;35071;-66
2022/04/30 04:04:46;;;;;;;64.97;42.80;;;;;;;2.72;76.25;101147.17;1858946;76;25422;-66
2022/04/30 04:07:12;;;;;;;66.60;42.83;;;;;;;2.76;76.31;101155.83;1858951;77;27517;-67
2022/04/30 04:09:38;;;;;;;70.62;44.70;;;;;;;2.82;76.59;101154.06;1858830;77;26056;-66
2022/04/30 04:12:06;;;;;;;65.97;42.05;;;;;;;2.87;76.78;101158.70;1859020;76;29841;-67
2022/04/30 04:20:01;;;;;;;72.17;43.42;;;;;;;3.05;76.92;101159.05;1859107;77;27505;-66
2022/04/30 04:22:28;;;;;;;69.77;42.50;;;;;;;3.11;77.09;101158.11;1858882;76;25836;-67
2022/04/30 04:27:39;;;;;;;72.05;46.88;;;;;;;3.26;77.60;101159.73;1858947;77;25547;-65
2022/04/30 04:30:07;;;;;;;69.95;45.80;;;;;;;3.37;77.99;101163.41;1858998;76;32429;-65
2022/04/30 04:32:33;;;;;;;68.78;45.38;;;;;;;3.45;78.11;101162.22;1858963;76;27523;-67
2022/04/30 04:34:59;;;;;;;67.20;44.40;;;;;;;3.55;78.04;101163.73;1858856;77;25819;-67
2022/04/30 04:37:27;;;;;;;75.00;46.63;;;;;;;3.65;78.20;101161.78;1858952;76;29747;-66
2022/04/30 04:39:55;;;;;;;74.70;45.75;;;;;;;3.75;78.50;101165.97;1858955;77;25534;-66
2022/04/30 04:42:21;;;;;;;70.28;44.63;;;;;;;3.87;78.81;101162.69;1858995;76;25414;-66
2022/04/30 04:44:48;;;;;;;75.32;46.53;;;;;;;4.00;78.84;101162.08;1858883;77;27515;-66
2022/04/30 04:47:15;;;;;;;72.55;47.40;;;;;;;4.14;79.26;101167.40;1858861;76;25458;-66
2022/04/30 04:49:43;;;;;;;77.25;48.15;;;;;;;4.27;79.39;101160.88;1858918;77;25587;-66
2022/04/30 04:52:10;;;;;;;73.50;47.17;;;;;;;4.41;79.51;101162.69;1858933;76;25569;-67
2022/04/30 04:54:36;;;;;;;68.52;45.95;;;;;;;4.54;79.40;101160.20;1858986;76;25567;-67
2022/04/30 04:57:03;;;;;;;66.00;45.50;;;;;;;4.65;79.40;101156.61;1858968;76;27440;-66
2022/04/30 04:59:30;;;;;;;70.95;46.98;;;;;;;4.79;79.47;101160.53;1858838;77;25541;-66
2022/04/30 05:01:56;;;;;;;73.62;47.70;;;;;;;4.94;79.58;101161.77;1858985;76;25458;-66
2022/04/30 05:04:23;;;;;;;72.25;45.98;;;;;;;5.08;79.90;101161.69;1858966;76;34690;-66
2022/04/30 05:06:50;;;;;;;66.70;43.63;;;;;;;5.21;79.66;101156.45;1858982;76;25617;-67
2022/04/30 05:09:16;;;;;;;66.22;42.80;;;;;;;5.37;79.65;101158.78;1859052;76;27471;-67
2022/04/30 05:11:42;;;;;;;61.23;41.42;;;;;;;5.50;79.31;101159.73;1858876;76;25391;-67
2022/04/30 05:14:09;;;;;;;60.92;39.65;;;;;;;5.64;79.19;101157.98;1859043;77;25532;-67
2022/04/30 05:16:35;;;;;;;59.90;39.38;;;;;;;5.78;79.09;101162.65;1858927;76;25413;-67
2022/04/30 05:19:01;;;;;;;65.57;41.00;;;;;;;5.92;78.99;101163.03;1858927;77;25446;-67
2022/04/30 05:21:28;;;;;;;64.45;41.20;;;;;;;6.10;79.28;101157.04;1858952;77;27539;-67
2022/04/30 05:23:54;;;;;;;61.45;40.03;;;;;;;6.28;79.12;101158.48;1858952;76;32683;-67
2022/04/30 05:26:20;;;;;;;60.25;39.95;;;;;;;6.45;78.86;101157.81;1858798;77;25513;-67
2022/04/30 05:28:46;;;;;;;57.75;39.05;;;;;;;6.67;78.84;101159.52;1858884;76;34691;-68
2022/04/30 05:31:14;;;;;;;57.25;39.48;;;;;;;6.87;78.58;101158.81;1858906;77;25358;-66
2022/04/30 05:33:40;;;;;;;58.55;39.65;;;;;;;7.09;78.35;101155.94;1858917;76;27441;-66
2022/04/30 05:36:08;;;;;;;57.13;38.95;;;;;;;7.33;78.64;101163.00;1858920;77;26078;-67
2022/04/30 05:38:34;;;;;;;55.78;38.40;;;;;;;7.57;78.21;101160.61;1858932;77;25532;-67
2022/04/30 05:41:02;;;;;;;53.92;38.60;;;;;;;7.83;77.81;101168.20;1858873;76;25605;-67
2022/04/30 05:43:28;;;;;;;58.65;38.60;;;;;;;8.10;77.58;101169.78;1858956;76;25436;-67
2022/04/30 05:45:54;;;;;;;57.95;38.10;;;;;;;8.35;77.09;101161.41;1859016;76;28571;-67
2022/04/30 05:48:22;;;;;;;52.45;38.25;;;;;;;8.64;76.88;101168.38;1858925;76;25575;-68
2022/04/30 05:50:51;;;;;;;57.23;39.65;;;;;;;8.93;76.72;101169.89;1858936;77;25578;-67
2022/04/30 05:53:17;;;;;;;57.27;38.95;;;;;;;9.28;76.57;101165.94;1858816;76;25580;-67
2022/04/30 05:55:43;;;;;;;55.55;39.35;;;;;;;9.64;76.62;101165.19;1859005;76;25591;-67
2022/04/30 05:58:09;;;;;;;58.87;38.20;;;;;;;9.97;75.33;101168.17;1859007;76;27449;-68
2022/04/30 06:00:35;;;;;;;53.45;37.50;;;;;;;10.30;74.84;101172.49;1858826;76;32865;-67
2022/04/30 06:03:01;;;;;;;54.90;39.92;;;;;;;10.63;73.94;101175.42;1858892;76;29608;-67
2022/04/30 06:05:28;;;;;;;57.25;38.08;;;;;;;10.95;73.20;101173.42;1858892;76;25517;-67
2022/04/30 06:07:54;;;;;;;53.95;36.23;;;;;;;11.23;71.93;101174.95;1858986;76;25576;-67
2022/04/30 06:10:20;;;;;;;51.98;35.68;;;;;;;11.51;71.10;101171.86;1858962;76;27338;-67
2022/04/30 06:12:46;;;;;;;49.23;33.67;;;;;;;11.78;70.42;101182.02;1858956;76;25381;-68
2022/04/30 06:15:12;;;;;;;50.98;36.35;;;;;;;12.10;70.46;101175.00;1859038;76;25494;-68
2022/04/30 06:17:38;;;;;;;49.03;32.70;;;;;;;12.48;70.46;101178.12;1859113;76;26390;-68
2022/04/30 06:20:08;;;;;;;47.33;33.40;;;;;;;12.84;69.65;101176.91;1859216;76;25458;-67
2022/04/30 06:22:34;;;;;;;43.80;31.62;;;;;;;13.17;68.03;101171.89;1859040;77;27539;-68
2022/04/30 06:25:00;;;;;;;39.40;29.60;;;;;;;13.42;66.70;101169.19;1859004;76;32717;-68
2022/04/30 06:27:27;;;;;;;41.73;30.20;;;;;;;13.72;66.14;101173.09;1863342;76;25374;-67
2022/04/30 06:29:55;;;;;;;40.30;29.40;;;;;;;14.02;65.51;101168.03;1865332;76;25532;-67
2022/04/30 06:32:21;;;;;;;39.35;29.57;;;;;;;14.38;65.10;101172.54;1865450;76;25558;-66
2022/04/30 06:34:47;;;;;;;40.95;26.97;;;;;;;14.73;63.67;101169.43;1865409;76;28192;-67
2022/04/30 06:37:13;;;;;;;40.55;26.87;;;;;;;15.08;63.56;101174.16;1865311;76;25379;-67
2022/04/30 06:39:39;;;;;;;33.48;24.95;;;;;;;15.42;62.64;101168.50;1865412;76;25506;-67
2022/04/30 06:42:07;;;;;;;33.38;22.73;;;;;;;15.76;60.69;101173.17;1865382;76;25601;-67
2022/04/30 06:44:33;;;;;;;33.28;24.10;;;;;;;16.09;60.38;101170.47;1865520;76;25426;-67
2022/04/30 06:46:59;;;;;;;35.28;23.77;;;;;;;16.47;59.20;101174.61;1865604;76;27444;-67
2022/04/30 06:49:28;;;;;;;31.42;21.48;;;;;;;16.78;58.48;101175.66;1865605;76;25608;-68
2022/04/30 06:51:54;;;;;;;36.15;24.20;;;;;;;17.10;57.55;101178.09;1865725;76;25378;-66
2022/04/30 06:57:17;;;;;;;32.23;23.05;;;;;;;17.77;55.49;101174.91;1865690;76;25431;-67
2022/04/30 06:59:42;;;;;;;31.87;22.82;;;;;;;18.14;54.79;101177.79;1865415;76;27479;-67
2022/04/30 07:02:17;;;;;;;42.53;29.50;;;;;;;18.55;54.33;101175.23;1865580;76;25603;-67
2022/04/30 07:04:42;;;;;;;37.45;24.80;;;;;;;18.94;53.14;101177.08;1865362;76;25604;-68
2022/04/30 07:07:10;;;;;;;32.03;21.85;;;;;;;19.30;52.60;101174.83;1865491;76;25531;-67
2022/04/30 07:09:37;;;;;;;33.23;21.55;;;;;;;19.63;50.73;101174.38;1865570;76;25624;-69
2022/04/30 07:12:09;;;;;;;29.02;20.30;;;;;;;19.95;50.65;101173.36;1865583;76;27554;-67
2022/04/30 07:14:39;;;;;;;40.35;25.05;;;;;;;20.33;49.21;101173.94;1865613;76;25552;-66
2022/04/30 07:17:08;;;;;;;30.97;21.35;;;;;;;20.71;48.31;101173.30;1865666;76;25517;-67
2022/04/30 07:19:35;;;;;;;;;;;;;;;21.02;46.84;101180.48;1868333;76;25685;-67
2022/04/30 07:22:02;;;;;;;25.62;18.02;;;;;;;21.37;45.28;101172.21;1865720;76;25496;-66
2022/04/30 07:24:30;;;;;;;27.15;19.85;;;;;;;21.71;44.97;101173.91;1865599;76;27462;-66
2022/04/30 07:26:57;;;;;;;31.85;20.17;;;;;;;22.06;44.34;101172.17;1863170;76;25579;-66
2022/04/30 07:29:23;;;;;;;25.02;18.80;;;;;;;22.38;43.89;101167.25;1859212;77;25568;-65
2022/04/30 07:31:50;;;;;;;17.00;13.20;;;;;;;22.65;42.62;101165.91;1859198;77;25555;-67
2022/04/30 07:34:16;;;;;;;17.30;13.85;;;;;;;22.83;41.15;101168.36;1859202;77;25605;-67
2022/04/30 07:36:43;;;;;;;17.77;13.00;;;;;;;23.01;39.60;101170.56;1859182;77;29586;-66
2022/04/30 07:39:09;;;;;;;13.80;9.63;;;;;;;23.11;38.80;101167.19;1859076;76;25363;-66
2022/04/30 07:41:35;;;;;;;7.92;5.58;;;;;;;23.42;38.42;101170.14;1859220;77;25541;-67
2022/04/30 07:44:02;;;;;;;9.25;6.00;;;;;;;23.73;37.91;101164.58;1859135;77;26190;-66
2022/04/30 07:46:29;;;;;;;10.45;6.35;;;;;;;24.08;36.79;101164.17;1859141;76;25375;-66
2022/04/30 07:48:55;;;;;;;5.40;4.67;;;;;;;24.36;35.49;101163.61;1859161;77;27458;-66
2022/04/30 07:51:34;;;;;;;4.37;2.60;;;;;;;24.57;34.76;101159.48;1859003;77;27248;-66
2022/04/30 07:53:51;;;;;;;5.00;3.77;;;;;;;24.79;33.90;101152.09;1857673;76;25631;-66
2022/04/30 07:56:18;;;;;;;6.70;5.35;;;;;;;24.98;32.68;101157.95;1859141;76;25607;-66
2022/04/30 07:58:44;;;;;;;7.20;4.83;;;;;;;24.97;31.69;101153.59;1859272;76;25600;-66
2022/04/30 08:01:10;;;;;;;5.35;4.40;;;;;;;25.02;31.48;101146.91;1859195;77;28307;-67
2022/04/30 08:03:40;;;;;;;7.35;4.30;;;;;;;25.11;31.19;101149.50;1859078;77;25603;-66
2022/04/30 08:06:06;;;;;;;6.30;4.00;;;;;;;25.32;30.54;101151.62;1859066;76;25576;-67
2022/04/30 08:08:32;;;;;;;9.43;5.37;;;;;;;25.38;30.13;101154.01;1859146;76;26129;-66
2022/04/30 08:10:59;;;;;;;11.30;5.55;;;;;;;25.54;29.94;101152.48;1859189;77;25374;-66
2022/04/30 08:13:26;;;;;;;8.00;6.50;;;;;;;25.72;29.60;101151.13;1859187;77;27443;-66
2022/04/30 08:15:52;;;;;;;7.75;5.05;;;;;;;25.94;29.68;101144.25;1859004;76;27284;-67
2022/04/30 08:18:19;;;;;;;6.72;4.70;;;;;;;26.21;29.34;101143.30;1859203;77;25521;-66
2022/04/30 08:20:47;;;;;;;9.63;4.90;;;;;;;26.46;28.87;101139.75;1859094;77;25507;-66
2022/04/30 08:23:14;;;;;;;5.50;4.00;;;;;;;26.72;28.57;101137.14;1859201;77;25407;-66
2022/04/30 08:25:40;;;;;;;4.53;3.55;;;;;;;26.80;27.98;101135.94;1853963;77;27520;-65
2022/04/30 08:28:07;;;;;;;6.53;3.65;;;;;;;26.96;27.54;101142.42;1858885;76;27361;-65
2022/04/30 08:30:33;;;;;;;5.45;3.30;;;;;;;27.15;26.63;101134.22;1853881;76;25655;-65
2022/04/30 08:32:59;;;;;;;7.40;3.22;;;;;;;27.37;26.54;101134.17;1828710;77;25667;-66
2022/04/30 08:35:27;;;;;;;5.97;3.58;;;;;;;27.54;26.38;101135.27;1849611;77;25532;-69
2022/04/30 08:37:53;;;;;;;7.97;3.70;;;;;;;27.71;26.25;101134.36;1849114;77;28105;-66
2022/04/30 08:40:21;;;;;;;5.30;3.27;;;;;;;27.85;25.55;101129.30;1846964;77;25585;-66
2022/04/30 08:42:47;;;;;;;4.00;2.95;;;;;;;27.79;25.44;101128.17;1851919;77;25524;-67
2022/04/30 08:45:13;;;;;;;4.62;2.98;;;;;;;27.88;25.27;101139.61;1843046;77;25727;-66
2022/04/30 08:47:45;;;;;;;4.10;3.00;;;;;;;28.04;25.02;101129.99;1842314;76;25609;-66
2022/04/30 08:50:14;;;;;;;7.33;3.08;;;;;;;28.11;24.36;101134.09;1839982;77;27534;-65
2022/04/30 08:52:41;;;;;;;5.47;3.22;;;;;;;28.11;24.57;101123.79;1855429;77;26221;-65
2022/04/30 08:55:09;;;;;;;5.10;2.98;;;;;;;28.28;24.36;101124.84;1775407;80;25604;-65
2022/04/30 08:57:36;;;;;;;8.48;3.12;;;;;;;28.42;23.98;101126.69;1785036;80;26030;-65
2022/04/30 09:00:05;;;;;;;6.80;5.00;;;;;;;28.64;23.91;101118.14;1779142;80;25396;-66
2022/04/30 09:02:31;;;;;;;7.05;3.00;;;;;;;28.67;23.15;101117.31;1781619;80;27397;-65
2022/04/30 09:04:58;;;;;;;3.77;3.05;;;;;;;28.54;22.47;101119.01;1729442;80;25727;-66
2022/04/30 09:07:26;;;;;;;4.33;2.92;;;;;;;28.50;22.01;101112.09;1780364;80;25793;-67
2022/04/30 09:10:00;;;;;;;5.08;2.92;;;;;;;28.41;21.87;101115.97;1780852;80;26145;-65
2022/04/30 09:12:31;;;;;;;4.42;2.95;;;;;;;28.24;22.32;101110.77;1765052;80;25469;-65
2022/04/30 09:14:59;;;;;;;5.15;2.75;;;;;;;28.07;21.64;101111.11;1776073;79;28178;-64
2022/04/30 09:17:27;;;;;;;4.80;2.77;;;;;;;27.89;21.78;101105.06;1798732;79;25895;-65
2022/04/30 09:20:01;;;;;;;5.78;3.22;;;;;;;28.08;22.14;101096.80;1793202;79;25692;-66
2022/04/30 09:22:36;;;;;;;4.12;2.70;;;;;;;28.42;22.14;101107.83;1796294;79;25669;-66
2022/04/30 09:25:09;;;;;;;5.03;2.80;;;;;;;28.57;20.56;101098.73;1780827;79;25840;-64
2022/04/30 09:27:55;;;;;;;4.55;2.42;;;;;;;28.36;21.10;101106.69;1794348;79;27518;-69
2022/04/30 09:30:18;;;;;;;5.95;2.80;;;;;;;28.62;22.15;101100.48;1761501;81;25557;-70
2022/04/30 09:32:45;;;;;;;5.12;2.77;;;;;;;28.78;22.40;101103.30;1782918;80;25684;-72
2022/04/30 09:38:06;;;;;;;2.95;2.08;;;;;;;28.36;23.86;101106.07;1761503;81;25716;-75
2022/04/30 09:40:32;;;;;;;5.15;2.62;;;;;;;28.15;22.34;101096.55;1757017;80;27584;-74
2022/04/30 09:43:01;;;;;;;6.42;4.03;;;;;;;28.09;23.45;101101.75;1782751;80;25446;-74
2022/04/30 09:45:33;;;;;;;6.10;2.58;;;;;;;27.73;23.64;101101.39;1735040;80;25639;-74
2022/04/30 09:53:55;;;;;;;3.40;2.80;;;;;;;27.63;24.12;101100.87;1759377;81;27023;-74
2022/04/30 09:56:08;;;;;;;5.90;3.08;;;;;;;26.60;24.46;101101.48;1777660;80;26217;-77
2022/04/30 09:58:39;;;;;;;4.75;2.92;;;;;;;26.44;25.60;101088.02;1793837;80;25821;-76
2022/04/30 10:01:11;;;;;;;5.12;3.15;;;;;;;26.60;23.77;101080.67;1790893;79;25613;-76
2022/04/30 10:03:39;;;;;;;5.33;2.77;;;;;;;26.58;24.30;101078.88;1775025;80;25719;-76
2022/04/30 10:06:07;;;;;;;2.95;2.60;;;;;;;26.38;25.03;101084.87;1776496;80;27515;-74
2022/04/30 10:08:36;;;;;;;4.72;2.45;;;;;;;26.41;23.38;101080.52;1761480;81;25682;-77
2022/04/30 10:11:35;;;;;;;7.12;3.25;;;;;;;26.45;24.46;101072.37;1794221;78;25678;-73
2022/04/30 10:14:16;;;;;;;5.28;2.90;;;;;;;26.17;23.88;101078.77;1759936;81;25642;-73
2022/04/30 10:17:09;;;;;;;4.33;2.60;;;;;;;25.90;24.73;101074.97;1778514;80;25437;-72
2022/04/30 10:19:18;;;;;;;3.42;2.67;;;;;;;25.89;24.34;101076.75;1761878;80;27518;-72
2022/04/30 10:21:44;;;;;;;3.00;2.27;;;;;;;25.95;23.12;101079.94;1774951;80;25750;-71
2022/04/30 10:24:14;;;;;;;4.25;2.98;;;;;;;25.92;23.44;101074.58;1757616;81;25391;-72
2022/04/30 10:26:43;;;;;;;3.35;2.17;;;;;;;26.07;22.94;101067.87;1757495;81;26123;-69
2022/04/30 10:29:12;;;;;;;3.55;2.33;;;;;;;26.14;22.00;101064.91;1786360;79;25392;-70
2022/04/30 10:31:44;;;;;;;2.87;2.20;;;;;;;26.04;22.62;101058.95;1795374;79;27532;-71
2022/04/30 10:34:11;;;;;;;4.72;2.72;;;;;;;26.08;22.42;101062.54;1823149;78;25592;-73
2022/04/30 10:36:40;;;;;;;27.70;18.17;;;;;;;26.16;22.25;101059.15;1809393;79;25737;-76
2022/04/30 10:39:11;;;;;;;3.80;2.20;;;;;;;26.31;22.29;101055.77;1797758;79;25650;-75
2022/04/30 10:41:53;;;;;;;5.78;2.20;;;;;;;26.35;21.67;101051.60;1797830;79;25509;-76
2022/04/30 10:44:32;;;;;;;4.30;2.37;;;;;;;26.56;21.94;101054.33;1797421;79;27470;-71
2022/04/30 10:47:13;;;;;;;5.55;2.00;;;;;;;26.83;22.42;101055.24;1797033;79;25560;-68
2022/04/30 10:49:40;;;;;;;4.28;2.30;;;;;;;27.52;22.24;101050.94;1797390;79;26345;-66
2022/04/30 10:52:08;;;;;;;3.75;2.00;;;;;;;27.91;21.58;101051.84;1797598;79;25640;-67
2022/04/30 10:54:36;;;;;;;;;;;;;;;28.44;21.50;101034.47;1773357;79;25483;-67
2022/04/30 10:57:06;;;;;;;2.92;1.90;;;;;;;29.31;20.75;101045.36;1830291;78;28018;-66
2022/04/30 10:59:32;;;;;;;3.62;2.15;;;;;;;29.76;19.82;101047.27;1797577;79;25553;-66
2022/04/30 11:02:01;;;;;;;3.33;1.80;;;;;;;29.90;19.14;101049.61;1830239;78;25503;-67
2022/04/30 11:04:28;;;;;;;3.08;2.12;;;;;;;30.12;19.48;101057.00;1797519;79;25728;-66
2022/04/30 11:06:56;;;;;;;3.00;1.77;;;;;;;30.46;19.15;101047.63;1830475;78;25653;-67
2022/04/30 11:09:23;;;;;;;5.33;1.72;;;;;;;30.81;18.47;101033.56;1770848;79;27587;-68
2022/04/30 11:11:51;;;;;;;2.72;1.67;;;;;;;31.02;17.57;101033.76;1809214;79;25627;-67
2022/04/30 11:14:19;;;;;;;2.33;1.82;;;;;;;30.81;17.08;101028.59;1797624;79;25600;-67
2022/04/30 11:16:49;;;;;;;;;;;;;;;30.53;16.88;101030.16;1798286;79;25792;-67
2022/04/30 11:19:19;;;;;;;3.58;1.80;;;;;;;30.24;16.31;101032.69;1809087;79;25700;-67
2022/04/30 11:21:52;;;;;;;3.25;1.90;;;;;;;30.35;17.17;101026.31;1797517;79;27653;-67
2022/04/30 11:24:32;;;;;;;5.05;2.02;;;;;;;30.57;16.86;101023.72;1830197;77;25827;-67
2022/04/30 11:27:05;;;;;;;6.95;2.00;;;;;;;30.67;17.84;101019.30;1797309;79;25603;-70
2022/04/30 11:29:35;;;;;;;2.50;1.65;;;;;;;30.72;17.56;101020.81;1804038;79;26048;-66
2022/04/30 11:32:01;;;;;;;2.22;1.10;;;;;;;30.82;17.23;101012.00;1788861;80;25704;-65
2022/04/30 11:34:28;;;;;;;4.60;1.77;;;;;;;30.59;17.18;101006.70;1786937;80;28177;-65
2022/04/30 11:36:57;;;;;;;2.98;2.37;;;;;;;30.24;17.13;101008.98;1809644;79;25362;-67
2022/04/30 11:39:25;;;;;;;9.15;5.12;;;;;;;30.20;17.20;101008.23;1809660;79;25601;-69
2022/04/30 11:41:54;;;;;;;4.83;2.30;;;;;;;30.23;17.19;101001.03;1809453;79;25612;-68
2022/04/30 11:44:24;;;;;;;3.62;2.80;;;;;;;30.32;17.02;100994.27;1809650;79;25662;-66
2022/04/30 11:46:53;;;;;;;3.67;1.75;;;;;;;30.36;16.99;100996.42;1809591;79;28254;-68
2022/04/30 11:49:24;;;;;;;4.25;1.90;;;;;;;30.11;16.26;100987.89;1809342;79;25604;-69
2022/04/30 11:51:55;;;;;;;4.12;1.82;;;;;;;29.66;16.13;100989.67;1788577;80;25672;-68
2022/04/30 11:54:24;;;;;;;4.37;1.90;;;;;;;29.24;16.43;100985.75;1809698;78;26041;-69
2022/04/30 11:56:52;;;;;;;3.00;1.90;;;;;;;29.26;16.39;100981.15;1809480;79;25637;-70
2022/04/30 11:59:36;;;;;;;8.83;6.20;;;;;;;28.96;16.63;100987.52;1809618;78;27650;-70